Strathmore, Canada
Current Conditions -  °F | °C
As of 7:00 PM on Wednesday 22 Oct 2014 (Local Time) from CYYC Reporting Station
Broken Clouds Broken Clouds  
Wind Chill: 55°   Ceiling: 24000
Heat Index: 55°   Visibility: 30mi
Dew Point: 32°   Wind: 6mph
Humidity: 41%   Direction: 120°ESE
Pressure: 29.64"   Gusts: NA
Location:  51.04°N, 113.38°W
Report Text: CYYC 230100Z 12005KT 30SM FEW050 FEW170 BKN240 BKN300 13/00 A2964 RMK SC1AC2CC3CI2 SC TR SLP055 DENSITY ALT 4500FT
Loading
Personal Weather Stations






























Interactive Weather Map
Tropical Storm Tracking
New forecast layout! Learn more

10-Day Weather Forecast

Advertisements
Track Severe Weather on mobile